| time (UTC) | temp C | wind direction | speed KPH | gust KPH | rain 1hr cm | rain 24hr cm | rain mn cm | humidity % | barometer mb |
| 20260905211411 | 18 | 351 | 3.2 | 4.8 | 0.00 | 0.05 | 0.05 | 56 | 1024.8 |
| 20260905210227 | 18 | 336 | 6.4 | 8.0 | 0.00 | 0.05 | 0.05 | 56 | 1024.6 |
| 20260905205251 | 17 | 293 | 4.8 | 4.8 | 0.00 | 0.05 | 0.05 | 58 | 1024.8 |
| 20260905204211 | 17 | 297 | 4.8 | 4.8 | 0.00 | 0.05 | 0.05 | 57 | 1024.6 |
| 20260905203027 | 17 | 285 | 3.2 | 3.2 | 0.00 | 0.05 | 0.05 | 57 | 1024.4 |
| 20260905202051 | 17 | 285 | 4.8 | 4.8 | 0.00 | 0.05 | 0.05 | 55 | 1024.4 |
| 20260905201011 | 18 | 333 | 4.8 | 4.8 | 0.00 | 0.05 | 0.05 | 53 | 1024.4 |
| 20260905195827 | 18 | 316 | 4.8 | 4.8 | 0.00 | 0.05 | 0.05 | 53 | 1024.4 |
| 20260905194851 | 18 | 341 | 6.4 | 8.0 | 0.00 | 0.05 | 0.05 | 53 | 1024.4 |
| 20260905193831 | 18 | 337 | 3.2 | 3.2 | 0.00 | 0.05 | 0.05 | 52 | 1024.0 |
| 20260905192627 | 18 | 343 | 0.0 | 0.0 | 0.00 | 0.05 | 0.05 | 52 | 1024.1 |
| 20260905191651 | 19 | 24 | 1.6 | 1.6 | 0.00 | 0.05 | 0.05 | 51 | 1023.9 |
| 20260905190611 | 18 | 349 | 4.8 | 4.8 | 0.00 | 0.05 | 0.05 | 50 | 1023.7 |
| 20260905185428 | 18 | 348 | 0.0 | 0.0 | 0.00 | 0.05 | 0.05 | 50 | 1023.7 |
| 20260905184451 | 19 | 12 | 4.8 | 4.8 | 0.00 | 0.05 | 0.05 | 49 | 1023.6 |
| 20260905183413 | 19 | 350 | 0.0 | 1.6 | 0.00 | 0.05 | 0.05 | 48 | 1023.6 |
| 20260905182227 | 20 | 263 | 6.4 | 8.0 | 0.00 | 0.05 | 0.05 | 46 | 1023.3 |
| 20260905181251 | 20 | 272 | 9.7 | 9.7 | 0.00 | 0.05 | 0.05 | 45 | 1023.1 |
| 20260905180211 | 20 | 246 | 14.5 | 17.7 | 0.00 | 0.05 | 0.05 | 45 | 1023.3 |
| 20260905175027 | 21 | 272 | 9.7 | 11.3 | 0.00 | 0.05 | 0.05 | 45 | 1023.1 |
| 20260905174051 | 21 | 260 | 12.9 | 17.7 | 0.00 | 0.05 | 0.05 | 44 | 1022.8 |
| 20260905173011 | 21 | 243 | 16.1 | 17.7 | 0.00 | 0.05 | 0.05 | 43 | 1022.7 |
| 20260905171812 | 21 | 280 | 12.9 | 16.1 | 0.00 | 0.05 | 0.05 | 44 | 1022.5 |
| 20260905170628 | 21 | 277 | 9.7 | 12.9 | 0.00 | 0.05 | 0.05 | 44 | 1022.5 |
| 20260905165654 | 21 | 276 | 14.5 | 16.1 | 0.00 | 0.05 | 0.05 | 43 | 1022.2 |
| 20260905164613 | 22 | 250 | 16.1 | 17.7 | 0.00 | 0.05 | 0.05 | 43 | 1022.2 |
| 20260905163428 | 22 | 272 | 9.7 | 11.3 | 0.00 | 0.05 | 0.05 | 43 | 1022.1 |
| 20260905162452 | 22 | 268 | 16.1 | 20.9 | 0.00 | 0.05 | 0.05 | 42 | 1021.9 |
| 20260905161412 | 22 | 351 | 8.0 | 9.7 | 0.00 | 0.05 | 0.05 | 42 | 1022.0 |
| 20260905160228 | 23 | 266 | 9.7 | 11.3 | 0.00 | 0.05 | 0.05 | 41 | 1021.8 |
| 20260905155252 | 23 | 266 | 8.0 | 11.3 | 0.00 | 0.05 | 0.05 | 42 | 1021.5 |
| 20260905154212 | 23 | 213 | 14.5 | 17.7 | 0.00 | 0.05 | 0.05 | 43 | 1021.4 |
| 20260905153303 | 23 | 265 | 16.1 | 17.7 | 0.00 | 0.05 | 0.05 | 43 | 1021.4 |
| 20260905152246 | 23 | 326 | 17.7 | 24.1 | 0.00 | 0.05 | 0.05 | 43 | 1021.4 |
| 20260905151252 | 23 | 270 | 22.5 | 29.0 | 0.00 | 0.05 | 0.05 | 43 | 1021.7 |
| 20260905150234 | 23 | 270 | 12.9 | 14.5 | 0.00 | 0.05 | 0.05 | 45 | 1021.4 |
| 20260905145220 | 23 | 311 | 14.5 | 16.1 | 0.00 | 0.05 | 0.05 | 46 | 1021.6 |
| 20260905144255 | 22 | 262 | 6.4 | 8.0 | 0.00 | 0.05 | 0.05 | 49 | 1021.8 |
| 20260905143312 | 22 | 257 | 20.9 | 25.7 | 0.00 | 0.05 | 0.05 | 49 | 1021.7 |
| 20260905142213 | 23 | 280 | 12.9 | 17.7 | 0.00 | 0.05 | 0.05 | 49 | 1021.8 |
| 20260905141132 | 22 | 233 | 22.5 | 24.1 | 0.00 | 0.05 | 0.05 | 48 | 1021.9 |
| 20260905140157 | 22 | 311 | 14.5 | 16.1 | 0.00 | 0.05 | 0.05 | 49 | 1022.0 |
| 20260905135138 | 22 | 276 | 9.7 | 14.5 | 0.00 | 0.05 | 0.05 | 49 | 1021.9 |
| 20260905134156 | 23 | 297 | 11.3 | 12.9 | 0.00 | 0.05 | 0.05 | 49 | 1021.9 |
| 20260905133054 | 22 | 295 | 12.9 | 16.1 | 0.00 | 0.05 | 0.05 | 50 | 1021.9 |
| 20260905131901 | 22 | 341 | 8.0 | 9.7 | 0.00 | 0.05 | 0.05 | 52 | 1021.9 |
| 20260905130901 | 22 | 251 | 9.7 | 14.5 | 0.00 | 0.05 | 0.05 | 52 | 1022.0 |
| 20260905125900 | 21 | 6 | 9.7 | 11.3 | 0.00 | 0.05 | 0.05 | 54 | 1022.1 |
| 20260905124842 | 21 | 279 | 17.7 | 22.5 | 0.00 | 0.05 | 0.05 | 53 | 1021.9 |
| 20260905123828 | 21 | 251 | 16.1 | 17.7 | 0.00 | 0.05 | 0.05 | 53 | 1022.2 |
| 20260905122853 | 22 | 232 | 9.7 | 12.9 | 0.00 | 0.05 | 0.05 | 54 | 1022.2 |
| 20260905121812 | 21 | 245 | 20.9 | 22.5 | 0.00 | 0.05 | 0.05 | 53 | 1022.1 |
| 20260905120645 | 21 | 241 | 19.3 | 25.7 | 0.00 | 0.05 | 0.05 | 52 | 1022.6 |
| 20260905115642 | 21 | 234 | 17.7 | 25.7 | 0.00 | 0.05 | 0.05 | 54 | 1022.1 |
| 20260905114701 | 21 | 269 | 17.7 | 20.9 | 0.00 | 0.05 | 0.05 | 54 | 1022.3 |
| 20260905113653 | 21 | 321 | 11.3 | 14.5 | 0.00 | 0.05 | 0.05 | 57 | 1022.1 |
| 20260905112618 | 21 | 330 | 9.7 | 11.3 | 0.00 | 0.05 | 0.05 | 58 | 1022.3 |
| 20260905111636 | 20 | 3 | 8.0 | 11.3 | 0.00 | 0.05 | 0.05 | 60 | 1022.5 |
| 20260905110701 | 20 | 290 | 14.5 | 14.5 | 0.00 | 0.05 | 0.05 | 63 | 1022.4 |
| 20260905105620 | 20 | 289 | 17.7 | 22.5 | 0.00 | 0.05 | 0.05 | 60 | 1022.3 |
| 20260905104644 | 19 | 296 | 11.3 | 12.9 | 0.00 | 0.05 | 0.05 | 66 | 1022.5 |
| 20260905103652 | 19 | 321 | 8.0 | 9.7 | 0.00 | 0.05 | 0.05 | 68 | 1022.4 |
| 20260905102612 | 19 | 312 | 8.0 | 14.5 | 0.00 | 0.05 | 0.05 | 70 | 1022.4 |
| 20260905101428 | 18 | 320 | 14.5 | 17.7 | 0.00 | 0.05 | 0.05 | 68 | 1022.6 |
| 20260905100420 | 18 | 275 | 16.1 | 17.7 | 0.00 | 0.05 | 0.05 | 67 | 1022.5 |
| 20260905095443 | 18 | 301 | 12.9 | 16.1 | 0.00 | 0.05 | 0.05 | 70 | 1022.6 |
| 20260905094435 | 17 | 341 | 4.8 | 4.8 | 0.00 | 0.05 | 0.05 | 75 | 1022.9 |
| 20260905093412 | 17 | 359 | 0.0 | 0.0 | 0.00 | 0.05 | 0.05 | 80 | 1022.8 |
| 20260905092333 | 16 | 254 | 6.4 | 8.0 | 0.00 | 0.05 | 0.05 | 76 | 1022.8 |
| 20260905091220 | 16 | 276 | 11.3 | 12.9 | 0.00 | 0.05 | 0.05 | 78 | 1023.5 |
| 20260905090033 | 16 | 292 | 11.3 | 12.9 | 0.03 | 0.05 | 0.05 | 80 | 1022.7 |
| 20260905085028 | 15 | 280 | 12.9 | 17.7 | 0.05 | 0.05 | 0.05 | 84 | 1023.2 |
| 20260905084113 | 16 | 337 | 3.2 | 4.8 | 0.05 | 0.05 | 0.05 | 83 | 1022.7 |
| 20260905083013 | 16 | 260 | 9.7 | 12.9 | 0.05 | 0.05 | 0.05 | 81 | 1023.5 |
| 20260905081812 | 15 | 247 | 8.0 | 11.3 | 0.05 | 0.05 | 0.05 | 84 | 1022.5 |
| 20260905080648 | 16 | 78 | 1.6 | 3.2 | 0.03 | 0.03 | 0.03 | 78 | 1021.4 |
| 20260905075653 | 17 | 121 | 3.2 | 3.2 | 0.00 | 0.00 | 0.00 | 72 | 1022.2 |
| 20260905074611 | 17 | 302 | 6.4 | 9.7 | 0.00 | 0.00 | 0.00 | 70 | 1022.6 |
| 20260905073428 | 16 | 348 | 6.4 | 8.0 | 0.00 | 0.00 | 0.00 | 74 | 1021.7 |
| 20260905072451 | 17 | 260 | 8.0 | 11.3 | 0.00 | 0.00 | 0.00 | 70 | 1022.5 |
| 20260905071412 | 17 | 270 | 9.7 | 11.3 | 0.00 | 0.00 | 0.00 | 70 | 1022.5 |
| 20260905070228 | 17 | 263 | 11.3 | 14.5 | 0.00 | 0.00 | 0.00 | 66 | 1021.1 |
| 20260905065252 | 18 | 293 | 16.1 | 25.7 | 0.00 | 0.00 | 0.00 | 62 | 1022.2 |
| 20260905064211 | 18 | 304 | 17.7 | 29.0 | 0.00 | 0.00 | 0.00 | 61 | 1021.6 |
| 20260905063028 | 18 | 308 | 17.7 | 17.7 | 0.00 | 0.00 | 0.00 | 61 | 1021.0 |
| 20260905062053 | 18 | 326 | 20.9 | 29.0 | 0.00 | 0.00 | 0.00 | 60 | 1020.9 |
| 20260905061013 | 19 | 279 | 14.5 | 20.9 | 0.00 | 0.00 | 0.00 | 60 | 1020.6 |
| 20260905055828 | 19 | 347 | 20.9 | 25.7 | 0.00 | 0.00 | 0.00 | 61 | 1020.7 |
| 20260905054851 | 19 | 352 | 20.9 | 27.4 | 0.00 | 0.00 | 0.00 | 66 | 1020.3 |
| 20260905053812 | 20 | 321 | 17.7 | 22.5 | 0.00 | 0.00 | 0.00 | 65 | 1020.3 |
| 20260905052627 | 20 | 312 | 12.9 | 17.7 | 0.00 | 0.00 | 0.00 | 63 | 1020.6 |
| 20260905051652 | 20 | 330 | 16.1 | 17.7 | 0.00 | 0.00 | 0.00 | 63 | 1019.9 |
| 20260905050611 | 20 | 314 | 24.1 | 29.0 | 0.00 | 0.00 | 0.00 | 64 | 1020.4 |
| 20260905045449 | 20 | 327 | 11.3 | 14.5 | 0.00 | 0.00 | 0.00 | 66 | 1019.1 |
| 20260905044452 | 20 | 22 | 12.9 | 14.5 | 0.00 | 0.00 | 0.00 | 67 | 1019.2 |
| 20260905043412 | 20 | 358 | 8.0 | 11.3 | 0.00 | 0.00 | 0.00 | 67 | 1019.1 |
| 20260905042228 | 20 | 5 | 6.4 | 8.0 | 0.00 | 0.00 | 0.00 | 69 | 1018.4 |
| 20260905041252 | 20 | 347 | 8.0 | 11.3 | 0.00 | 0.00 | 0.00 | 70 | 1018.0 |
| 20260905040212 | 20 | 321 | 11.3 | 16.1 | 0.00 | 0.00 | 0.00 | 68 | 1017.8 |
| 20260905035027 | 20 | 273 | 11.3 | 11.3 | 0.00 | 0.00 | 0.00 | 67 | 1017.5 |
| 20260905034053 | 20 | 286 | 14.5 | 16.1 | 0.00 | 0.00 | 0.00 | 66 | 1016.7 |
| 20260905033012 | 21 | 333 | 12.9 | 16.1 | 0.00 | 0.00 | 0.00 | 65 | 1016.8 |
| 20260905031848 | 21 | 291 | 11.3 | 12.9 | 0.00 | 0.00 | 0.00 | 66 | 1016.6 |
| 20260905030852 | 21 | 287 | 8.0 | 11.3 | 0.00 | 0.00 | 0.00 | 65 | 1016.7 |
| 20260905025812 | 21 | 327 | 11.3 | 12.9 | 0.00 | 0.00 | 0.00 | 67 | 1017.0 |
| 20260905024648 | 21 | 323 | 16.1 | 17.7 | 0.00 | 0.00 | 0.00 | 67 | 1016.8 |
| 20260905023651 | 20 | 304 | 11.3 | 12.9 | 0.00 | 0.00 | 0.00 | 71 | 1016.8 |
| 20260905022612 | 20 | 287 | 9.7 | 11.3 | 0.00 | 0.00 | 0.00 | 70 | 1016.6 |
| 20260905021428 | 20 | 342 | 3.2 | 3.2 | 0.00 | 0.00 | 0.00 | 69 | 1017.0 |
| 20260905020453 | 21 | 114 | 4.8 | 4.8 | 0.00 | 0.00 | 0.00 | 65 | 1017.0 |
| 20260905015412 | 19 | 253 | 6.4 | 8.0 | 0.00 | 0.00 | 0.00 | 71 | 1016.6 |
| 20260905014229 | 19 | 267 | 3.2 | 3.2 | 0.00 | 0.00 | 0.00 | 72 | 1016.8 |
| 20260905013252 | 18 | 258 | 3.2 | 3.2 | 0.00 | 0.00 | 0.00 | 73 | 1016.7 |
| 20260905012212 | 20 | 347 | 0.0 | 1.6 | 0.00 | 0.00 | 0.00 | 69 | 1016.4 |
| 20260905011028 | 19 | 113 | 0.0 | 1.6 | 0.00 | 0.00 | 0.00 | 70 | 1016.4 |
| 20260905010052 | 19 | 217 | 3.2 | 3.2 | 0.00 | 0.00 | 0.00 | 71 | 1016.4 |
| 20260905005012 | 18 | 266 | 3.2 | 3.2 | 0.00 | 0.00 | 0.00 | 72 | 1016.3 |
| 20260905003828 | 19 | 257 | 1.6 | 3.2 | 0.00 | 0.00 | 0.00 | 70 | 1016.6 |
| 20260905002852 | 18 | 253 | 1.6 | 3.2 | 0.00 | 0.00 | 0.00 | 71 | 1016.5 |
| 20260905001812 | 18 | 257 | 6.4 | 9.7 | 0.00 | 0.00 | 0.00 | 70 | 1016.1 |
| 20260905000628 | 18 | 345 | 0.0 | 1.6 | 0.00 | 0.00 | 0.00 | 71 | 1016.0 |
| 20260904235652 | 19 | 265 | 3.2 | 3.2 | 0.00 | 0.00 | 0.00 | 69 | 1016.1 |
| 20260904234612 | 19 | 117 | 1.6 | 1.6 | 0.00 | 0.00 | 0.00 | 70 | 1016.2 |
| 20260904233548 | 19 | 252 | 3.2 | 3.2 | 0.00 | 0.00 | 0.00 | 69 | 1016.1 |
| 20260904232512 | 18 | 234 | 6.4 | 8.0 | 0.00 | 0.00 | 0.00 | 71 | 1016.2 |
| 20260904231414 | 19 | 243 | 4.8 | 4.8 | 0.00 | 0.00 | 0.00 | 70 | 1016.2 |
| 20260904230434 | 18 | 246 | 6.4 | 8.0 | 0.00 | 0.00 | 0.00 | 70 | 1016.3 |
| 20260904225522 | 18 | 212 | 4.8 | 4.8 | 0.00 | 0.00 | 0.00 | 71 | 1016.3 |
| 20260904224421 | 18 | 342 | 0.0 | 0.0 | 0.00 | 0.00 | 0.00 | 70 | 1016.2 |
| 20260904223433 | 18 | 115 | 0.0 | 0.0 | 0.00 | 0.00 | 0.00 | 71 | 1016.2 |
| 20260904222452 | 18 | 354 | 1.6 | 1.6 | 0.00 | 0.00 | 0.00 | 72 | 1016.2 |
| 20260904221412 | 17 | 253 | 1.6 | 1.6 | 0.00 | 0.00 | 0.00 | 74 | 1016.2 |
| 20260904220437 | 18 | 120 | 1.6 | 1.6 | 0.00 | 0.00 | 0.00 | 71 | 1016.4 |
| 20260904215448 | 18 | 162 | 4.8 | 4.8 | 0.00 | 0.00 | 0.00 | 70 | 1016.1 |
| 20260904214452 | 18 | 260 | 3.2 | 3.2 | 0.00 | 0.00 | 0.00 | 73 | 1016.3 |
| 20260904213432 | 18 | 256 | 4.8 | 4.8 | 0.00 | 0.00 | 0.00 | 71 | 1016.3 |
| 20260904212228 | 19 | 223 | 3.2 | 3.2 | 0.00 | 0.00 | 0.00 | 69 | 1016.3 |